Time;durP1;ratioP1;P1;durP2;ratioP2;P2;SDS_P1;SDS_P2;PMS_P1;PMS_P2;Temp;Humidity;BMP_temperature;BMP_pressure;BME280_temperature;BME280_humidity;BME280_pressure;Samples;Min_cycle;Max_cycle;Signal;HPM_P1;HPM_P2
2024/01/11 00:01:00;;;;;;;32.00;24.70;;;-5.10;99.90;;;;;;5015808;28;20455;-74
2024/01/11 00:03:28;;;;;;;33.80;25.53;;;-5.10;99.90;;;;;;5015924;28;20427;-74
2024/01/11 00:05:56;;;;;;;37.63;27.57;;;-5.10;99.90;;;;;;5014349;28;20526;-74
2024/01/11 00:08:24;;;;;;;35.17;24.37;;;-5.10;99.90;;;;;;5014280;28;20877;-74
2024/01/11 00:10:53;;;;;;;37.03;27.13;;;-5.10;99.90;;;;;;5013959;28;20460;-74
2024/01/11 00:13:23;;;;;;;43.53;26.53;;;-5.10;99.90;;;;;;5014416;28;20820;-74
2024/01/11 00:15:51;;;;;;;35.33;24.43;;;-5.10;99.90;;;;;;5014184;28;20498;-74
2024/01/11 00:18:21;;;;;;;40.53;29.30;;;-5.10;99.90;;;;;;5015028;28;20523;-74
2024/01/11 00:20:49;;;;;;;47.90;28.83;;;-5.10;99.90;;;;;;5013983;28;20470;-74
2024/01/11 00:23:17;;;;;;;43.63;29.47;;;-5.10;99.90;;;;;;5015245;28;21004;-74
2024/01/11 00:25:46;;;;;;;46.67;30.40;;;-5.10;99.90;;;;;;5015005;28;20476;-74
2024/01/11 00:28:14;;;;;;;44.67;29.23;;;-5.10;99.90;;;;;;5015079;28;20503;-74
2024/01/11 00:30:42;;;;;;;54.13;30.63;;;-5.10;99.90;;;;;;5013579;28;20490;-74
2024/01/11 00:33:11;;;;;;;50.10;30.73;;;-5.00;99.90;;;;;;5013599;28;20510;-74
2024/01/11 00:35:40;;;;;;;46.53;31.70;;;-5.00;99.90;;;;;;5014074;28;20459;-74
2024/01/11 00:38:09;;;;;;;54.80;33.77;;;-5.00;99.90;;;;;;5014891;28;20436;-74
2024/01/11 00:40:37;;;;;;;58.63;34.50;;;-5.00;99.90;;;;;;5014633;28;20467;-74
2024/01/11 00:43:05;;;;;;;58.33;34.47;;;-4.90;99.90;;;;;;5014673;28;20474;-74
2024/01/11 00:45:34;;;;;;;64.83;36.47;;;-4.90;99.90;;;;;;5013364;28;20444;-74
2024/01/11 00:48:03;;;;;;;57.50;34.43;;;-4.90;99.90;;;;;;5014735;28;20476;-74
2024/01/11 00:50:32;;;;;;;54.63;33.00;;;-4.80;99.90;;;;;;5014933;28;20459;-74
2024/01/11 00:53:01;;;;;;;51.77;33.40;;;-4.80;99.90;;;;;;5018702;28;20444;-74
2024/01/11 00:55:30;;;;;;;49.60;32.00;;;-4.80;99.90;;;;;;5018417;28;20467;-74
2024/01/11 00:57:58;;;;;;;53.50;32.20;;;-4.80;99.90;;;;;;5015980;28;20452;-74
2024/01/11 01:00:26;;;;;;;60.50;33.53;;;-4.80;99.90;;;;;;5016521;28;20964;-74
2024/01/11 01:02:55;;;;;;;67.60;36.23;;;-4.80;99.90;;;;;;5015834;28;20467;-74
2024/01/11 01:05:23;;;;;;;55.63;35.73;;;-4.80;99.90;;;;;;5013961;28;20816;-74
2024/01/11 01:07:52;;;;;;;60.80;35.80;;;-4.80;99.90;;;;;;5013639;28;22343;-74
2024/01/11 01:10:22;;;;;;;69.47;35.27;;;-4.70;99.90;;;;;;5013572;28;20503;-74
2024/01/11 01:12:51;;;;;;;60.63;33.43;;;-4.70;99.90;;;;;;5015364;28;20459;-74
2024/01/11 01:15:19;;;;;;;55.63;32.30;;;-4.70;99.90;;;;;;5013539;28;21003;-74
2024/01/11 01:17:47;;;;;;;66.23;35.57;;;-4.80;99.90;;;;;;5014125;28;20436;-74
2024/01/11 01:20:16;;;;;;;64.43;37.20;;;-4.80;99.90;;;;;;5013932;28;20454;-74
2024/01/11 01:22:44;;;;;;;57.57;32.17;;;-4.80;99.90;;;;;;5014875;28;20440;-74
2024/01/11 01:25:12;;;;;;;58.63;31.73;;;-4.80;99.90;;;;;;5014513;28;20922;-74
2024/01/11 01:27:42;;;;;;;64.63;33.90;;;-4.80;99.90;;;;;;5013042;28;20444;-74
2024/01/11 01:30:11;;;;;;;73.97;34.83;;;-4.80;99.90;;;;;;5014762;28;20494;-74
2024/01/11 01:32:39;;;;;;;59.07;33.57;;;-4.80;99.90;;;;;;5018111;28;20439;-74
2024/01/11 01:35:08;;;;;;;60.40;34.20;;;-4.80;99.90;;;;;;5017767;28;20444;-74
2024/01/11 01:37:36;;;;;;;72.30;35.33;;;-4.70;99.90;;;;;;5017891;28;20514;-74
2024/01/11 01:40:07;;;;;;;71.10;34.80;;;-4.70;99.90;;;;;;5017664;28;20458;-74
2024/01/11 01:42:35;;;;;;;71.63;38.27;;;-4.70;99.90;;;;;;5018385;28;20509;-74
2024/01/11 01:45:06;;;;;;;71.47;36.40;;;-4.70;99.90;;;;;;5018209;28;20526;-74
2024/01/11 01:47:34;;;;;;;68.07;35.03;;;-4.70;99.90;;;;;;5017851;28;20447;-74
2024/01/11 01:50:04;;;;;;;65.07;34.77;;;-4.70;99.90;;;;;;5017524;28;20483;-74
2024/01/11 01:52:34;;;;;;;73.13;37.53;;;-4.70;99.90;;;;;;5016437;28;20451;-74
2024/01/11 01:55:04;;;;;;;65.70;34.30;;;-4.70;99.90;;;;;;5016411;28;20986;-74
2024/01/11 01:57:35;;;;;;;65.50;36.13;;;-4.70;99.90;;;;;;5016168;28;20476;-74
2024/01/11 02:00:06;;;;;;;64.93;35.33;;;-4.70;99.90;;;;;;5015921;28;20471;-74
2024/01/11 02:02:40;;;;;;;66.30;34.87;;;-4.60;99.90;;;;;;5017934;28;20782;-74
2024/01/11 02:05:10;;;;;;;61.47;36.30;;;-4.60;99.90;;;;;;5017575;28;20440;-74
2024/01/11 02:07:39;;;;;;;67.83;37.23;;;-4.60;99.90;;;;;;5017549;28;20971;-74
2024/01/11 02:10:08;;;;;;;85.10;41.37;;;-4.60;99.90;;;;;;5017091;28;20479;-74
2024/01/11 02:12:37;;;;;;;65.47;35.10;;;-4.60;99.90;;;;;;5017193;28;20486;-74
2024/01/11 02:15:08;;;;;;;77.03;37.93;;;-4.60;99.90;;;;;;5016998;28;20444;-74
2024/01/11 02:17:36;;;;;;;73.03;38.27;;;-4.60;99.90;;;;;;5017007;28;20948;-74
2024/01/11 02:20:05;;;;;;;65.93;36.03;;;-4.60;99.90;;;;;;5016787;28;20474;-74
2024/01/11 02:22:37;;;;;;;64.97;36.63;;;-4.60;99.90;;;;;;5015630;28;20557;-74
2024/01/11 02:25:08;;;;;;;60.63;36.97;;;-4.60;99.90;;;;;;5016885;28;20424;-74
2024/01/11 02:27:46;;;;;;;64.37;34.90;;;-4.60;99.90;;;;;;5015617;28;20531;-74
2024/01/11 02:30:15;;;;;;;73.33;38.50;;;-4.60;99.90;;;;;;5016396;28;20618;-74
2024/01/11 02:32:46;;;;;;;76.87;38.73;;;-4.60;99.90;;;;;;5015485;28;20481;-74
2024/01/11 02:35:16;;;;;;;73.30;39.47;;;-4.60;99.90;;;;;;5016755;28;20431;-74
2024/01/11 02:37:45;;;;;;;86.27;39.73;;;-4.60;99.90;;;;;;5015501;28;20432;-74
2024/01/11 02:40:15;;;;;;;81.83;39.93;;;-4.60;99.90;;;;;;5014963;28;20566;-74
2024/01/11 02:42:44;;;;;;;77.33;39.27;;;-4.60;99.90;;;;;;5014460;28;20438;-74
2024/01/11 02:45:13;;;;;;;71.30;37.17;;;-4.60;99.90;;;;;;5016341;28;20923;-74
2024/01/11 02:47:41;;;;;;;74.60;37.77;;;-4.60;99.90;;;;;;5016815;28;20443;-74
2024/01/11 02:50:11;;;;;;;74.67;37.70;;;-4.60;99.90;;;;;;5016060;28;20477;-74
2024/01/11 02:52:40;;;;;;;66.83;36.30;;;-4.60;99.90;;;;;;5014781;28;20812;-74
2024/01/11 02:55:09;;;;;;;61.77;34.30;;;-4.60;99.90;;;;;;5014584;28;20452;-74
2024/01/11 02:57:38;;;;;;;63.20;33.70;;;-4.70;99.90;;;;;;5015835;28;20440;-74
2024/01/11 03:00:08;;;;;;;65.33;34.90;;;-4.70;99.90;;;;;;5014499;28;20476;-74
2024/01/11 03:02:37;;;;;;;64.63;34.10;;;-4.70;99.90;;;;;;5014669;28;20452;-74
2024/01/11 03:05:07;;;;;;;71.77;36.70;;;-4.70;99.90;;;;;;5015710;28;20436;-74
2024/01/11 03:07:35;;;;;;;64.03;37.00;;;-4.70;99.90;;;;;;5016107;28;20471;-74
2024/01/11 03:10:04;;;;;;;70.70;36.60;;;-4.70;99.90;;;;;;5015818;28;20473;-74
2024/01/11 03:12:32;;;;;;;63.03;33.17;;;-4.70;99.90;;;;;;5014764;28;20452;-74
2024/01/11 03:15:02;;;;;;;69.90;35.20;;;-4.70;99.90;;;;;;5014395;28;20960;-74
2024/01/11 03:17:30;;;;;;;56.50;32.10;;;-4.70;99.90;;;;;;5014592;28;20463;-74
2024/01/11 03:19:59;;;;;;;57.80;31.13;;;-4.70;99.90;;;;;;5015581;28;20909;-74
2024/01/11 03:22:28;;;;;;;67.00;35.47;;;-4.80;99.90;;;;;;5015921;28;20970;-74
2024/01/11 03:24:56;;;;;;;63.10;35.57;;;-4.80;99.90;;;;;;5016184;28;20449;-74
2024/01/11 03:27:24;;;;;;;75.03;35.40;;;-4.90;99.90;;;;;;5015808;28;20486;-74
2024/01/11 03:29:53;;;;;;;74.40;34.97;;;-4.90;99.90;;;;;;5015189;28;20481;-74
2024/01/11 03:32:22;;;;;;;73.03;37.70;;;-4.90;99.90;;;;;;5015448;28;20428;-74
2024/01/11 03:34:51;;;;;;;72.33;37.63;;;-4.90;99.90;;;;;;5014059;28;20451;-74
2024/01/11 03:37:19;;;;;;;74.97;36.50;;;-4.90;99.90;;;;;;5014003;28;20446;-74
2024/01/11 03:39:47;;;;;;;74.50;36.90;;;-4.90;99.90;;;;;;5013722;28;20499;-74
2024/01/11 03:42:15;;;;;;;76.47;38.20;;;-4.90;99.90;;;;;;5014926;28;20479;-74
2024/01/11 03:44:44;;;;;;;68.70;36.13;;;-4.90;99.90;;;;;;5014892;28;20447;-74
2024/01/11 03:47:12;;;;;;;68.43;36.10;;;-4.90;99.90;;;;;;5014728;28;20531;-74
2024/01/11 03:49:42;;;;;;;66.73;33.77;;;-4.90;99.90;;;;;;5013415;28;20483;-74
2024/01/11 03:52:10;;;;;;;74.70;34.63;;;-5.00;99.90;;;;;;5013312;28;20483;-74
2024/01/11 03:54:38;;;;;;;70.80;36.27;;;-5.00;99.90;;;;;;5013009;28;20459;-74
2024/01/11 03:57:07;;;;;;;76.57;39.37;;;-5.00;99.90;;;;;;5014609;28;20532;-74
2024/01/11 03:59:35;;;;;;;72.83;35.57;;;-5.10;99.90;;;;;;5014854;28;20558;-74
2024/01/11 04:02:04;;;;;;;69.33;34.80;;;-5.10;99.90;;;;;;5014582;28;20786;-74
2024/01/11 04:04:32;;;;;;;64.07;33.80;;;-5.10;99.90;;;;;;5013322;28;20447;-74
2024/01/11 04:07:02;;;;;;;59.57;32.57;;;-5.20;99.90;;;;;;5014276;28;20477;-74
2024/01/11 04:09:30;;;;;;;59.63;31.57;;;-5.20;99.90;;;;;;5012997;28;20904;-74
2024/01/11 04:11:58;;;;;;;64.10;34.33;;;-5.20;99.90;;;;;;5013334;28;20452;-74
2024/01/11 04:14:27;;;;;;;65.03;32.23;;;-5.20;99.90;;;;;;5014434;28;20432;-74
2024/01/11 04:16:55;;;;;;;61.40;32.53;;;-5.20;99.90;;;;;;5012968;28;20543;-74
2024/01/11 04:19:23;;;;;;;61.67;32.47;;;-5.20;99.90;;;;;;5012746;28;20447;-74
2024/01/11 04:21:52;;;;;;;71.53;32.27;;;-5.20;99.90;;;;;;5014585;28;20543;-74
2024/01/11 04:24:22;;;;;;;66.13;34.30;;;-5.20;99.90;;;;;;5012867;28;20505;-74
2024/01/11 04:26:50;;;;;;;72.57;35.93;;;-5.20;99.90;;;;;;5013123;28;20498;-74
2024/01/11 04:29:19;;;;;;;71.67;37.77;;;-5.20;99.90;;;;;;5013063;28;20547;-74
2024/01/11 04:31:47;;;;;;;66.80;34.57;;;-5.20;99.90;;;;;;5014270;28;20471;-74
2024/01/11 04:34:15;;;;;;;64.27;31.40;;;-5.20;99.90;;;;;;5014060;28;20877;-74
2024/01/11 04:36:43;;;;;;;60.47;34.63;;;-5.20;99.90;;;;;;5012599;28;20450;-74
2024/01/11 04:39:12;;;;;;;65.83;34.53;;;-5.20;99.90;;;;;;5013847;28;20467;-74
2024/01/11 04:41:41;;;;;;;64.03;32.80;;;-5.20;99.90;;;;;;5012719;28;20543;-74
2024/01/11 04:44:10;;;;;;;75.27;34.87;;;-5.20;99.90;;;;;;5013835;28;20436;-74
2024/01/11 04:46:39;;;;;;;56.93;32.30;;;-5.10;99.90;;;;;;5013728;28;20445;-74
2024/01/11 04:49:07;;;;;;;63.50;31.57;;;-5.10;99.90;;;;;;5013664;28;20432;-74
2024/01/11 04:51:35;;;;;;;60.23;32.23;;;-5.10;99.90;;;;;;5013144;28;20987;-74
2024/01/11 04:54:03;;;;;;;59.23;33.73;;;-5.10;99.90;;;;;;5012389;28;20511;-74
2024/01/11 04:56:32;;;;;;;60.40;34.10;;;-5.00;99.90;;;;;;5012369;28;20477;-74
2024/01/11 04:59:01;;;;;;;56.83;31.13;;;-5.00;99.90;;;;;;5012622;28;20452;-74
2024/01/11 05:01:30;;;;;;;67.67;34.23;;;-4.90;99.90;;;;;;5013624;28;20454;-74
2024/01/11 05:03:58;;;;;;;63.27;33.60;;;-4.90;99.90;;;;;;5012549;28;20542;-74
2024/01/11 05:06:26;;;;;;;68.63;33.53;;;-4.90;99.90;;;;;;5017989;28;20445;-74
2024/01/11 05:08:54;;;;;;;57.37;31.40;;;-4.80;99.90;;;;;;5017632;28;20471;-74
2024/01/11 05:11:24;;;;;;;65.00;33.07;;;-4.80;99.90;;;;;;5017448;28;20479;-74
2024/01/11 05:13:54;;;;;;;65.73;34.67;;;-4.80;99.90;;;;;;5017557;28;20424;-74
2024/01/11 05:16:25;;;;;;;65.07;34.67;;;-4.70;99.90;;;;;;5016551;28;20546;-74
2024/01/11 05:18:55;;;;;;;69.10;34.20;;;-4.70;99.90;;;;;;5017629;28;20420;-74
2024/01/11 05:21:24;;;;;;;68.67;31.80;;;-4.70;99.90;;;;;;5016179;28;20474;-74
2024/01/11 05:23:52;;;;;;;65.63;32.00;;;-4.70;99.90;;;;;;5017302;28;20498;-74
2024/01/11 05:26:21;;;;;;;65.10;34.13;;;-4.70;99.90;;;;;;5017368;28;20531;-74
2024/01/11 05:28:49;;;;;;;56.70;29.53;;;-4.70;99.90;;;;;;5017297;28;20451;-74
2024/01/11 05:31:18;;;;;;;58.93;31.30;;;-4.60;99.90;;;;;;5015825;28;20480;-74
2024/01/11 05:33:48;;;;;;;59.30;32.03;;;-4.60;99.90;;;;;;5016090;28;20863;-74
2024/01/11 05:36:17;;;;;;;60.03;33.33;;;-4.60;99.90;;;;;;5017159;28;20860;-74
2024/01/11 05:38:46;;;;;;;62.00;32.53;;;-4.60;99.90;;;;;;5017458;28;20471;-74
2024/01/11 05:41:14;;;;;;;60.63;31.80;;;-4.50;99.90;;;;;;5015929;28;20567;-74
2024/01/11 05:43:44;;;;;;;60.17;29.70;;;-4.50;99.90;;;;;;5015754;28;20869;-74
2024/01/11 05:46:12;;;;;;;61.53;33.70;;;-4.50;99.90;;;;;;5017036;28;20995;-74
2024/01/11 05:48:40;;;;;;;75.53;34.10;;;-4.40;99.90;;;;;;5016899;28;20521;-74
2024/01/11 05:51:11;;;;;;;59.57;31.73;;;-4.40;99.90;;;;;;5016791;28;20569;-74
2024/01/11 05:53:39;;;;;;;74.57;33.70;;;-4.40;99.90;;;;;;5016911;28;20509;-74
2024/01/11 05:56:11;;;;;;;68.13;34.40;;;-4.40;99.90;;;;;;5017048;28;21004;-74
2024/01/11 05:58:40;;;;;;;74.30;34.73;;;-4.30;99.90;;;;;;5016821;28;20439;-74
2024/01/11 06:01:09;;;;;;;76.33;36.90;;;-4.30;99.90;;;;;;5016699;28;20458;-74
2024/01/11 06:03:38;;;;;;;73.30;37.43;;;-4.30;99.90;;;;;;5015476;28;20470;-74
2024/01/11 06:06:07;;;;;;;76.83;35.73;;;-4.20;99.90;;;;;;5015496;28;20462;-74
2024/01/11 06:08:38;;;;;;;80.03;38.63;;;-4.20;99.90;;;;;;5015511;28;20454;-74
2024/01/11 06:11:07;;;;;;;72.90;34.70;;;-4.30;99.90;;;;;;5015596;28;20869;-74
2024/01/11 06:13:36;;;;;;;82.47;37.43;;;-4.20;99.90;;;;;;5016555;28;20430;-74
2024/01/11 06:16:05;;;;;;;78.07;36.80;;;-4.20;99.90;;;;;;5014159;28;20474;-74
2024/01/11 06:18:33;;;;;;;82.60;36.80;;;-4.20;99.90;;;;;;5015118;28;20444;-74
2024/01/11 06:21:01;;;;;;;80.60;36.17;;;-4.20;99.90;;;;;;5014994;28;20464;-74
2024/01/11 06:23:30;;;;;;;93.33;39.57;;;-4.10;99.90;;;;;;5014976;28;20995;-74
2024/01/11 06:25:59;;;;;;;87.57;40.10;;;-4.10;99.90;;;;;;5016312;28;20494;-75
2024/01/11 06:28:28;;;;;;;80.33;38.90;;;-4.10;99.90;;;;;;5016195;28;20432;-75
2024/01/11 06:30:56;;;;;;;76.17;38.57;;;-4.10;99.90;;;;;;5015160;28;20842;-74
2024/01/11 06:33:24;;;;;;;86.60;39.50;;;-4.00;99.90;;;;;;5014908;28;20526;-75
2024/01/11 06:35:53;;;;;;;85.60;40.30;;;-4.00;99.90;;;;;;5014745;28;20505;-74
2024/01/11 06:38:21;;;;;;;82.43;38.03;;;-4.00;99.90;;;;;;5014744;28;20456;-74
2024/01/11 06:40:49;;;;;;;94.93;39.90;;;-3.90;99.90;;;;;;5014661;28;20466;-75
2024/01/11 06:43:19;;;;;;;90.67;41.37;;;-3.90;99.90;;;;;;5016011;28;20436;-74
2024/01/11 06:45:47;;;;;;;88.83;41.07;;;-3.90;99.90;;;;;;5015888;28;20436;-75
2024/01/11 06:48:16;;;;;;;86.73;41.40;;;-3.80;99.90;;;;;;5014860;28;20885;-74
2024/01/11 06:50:44;;;;;;;83.73;39.37;;;-3.80;99.90;;;;;;5015925;28;20516;-75
2024/01/11 06:53:13;;;;;;;84.57;41.67;;;-3.80;99.90;;;;;;5014481;28;20461;-75
2024/01/11 06:55:42;;;;;;;96.53;41.77;;;-3.80;99.90;;;;;;5014405;28;20518;-75
2024/01/11 06:58:11;;;;;;;85.17;42.50;;;-3.70;99.90;;;;;;5014314;28;20498;-75
2024/01/11 07:00:42;;;;;;;86.87;41.73;;;-3.80;99.90;;;;;;5015428;28;20465;-74
2024/01/11 07:03:12;;;;;;;97.87;41.20;;;-3.70;99.90;;;;;;5015050;28;20941;-74
2024/01/11 07:05:40;;;;;;;89.13;43.33;;;-3.70;99.90;;;;;;5015104;28;20460;-75
2024/01/11 07:08:09;;;;;;;97.17;43.67;;;-3.70;99.90;;;;;;5014421;28;20818;-74
2024/01/11 07:10:37;;;;;;;87.83;40.00;;;-3.70;99.90;;;;;;5015538;28;20466;-75
2024/01/11 07:13:06;;;;;;;87.80;42.90;;;-3.70;99.90;;;;;;5016157;28;20463;-75
2024/01/11 07:15:34;;;;;;;94.60;42.43;;;-3.70;99.90;;;;;;5014449;28;20459;-75
2024/01/11 07:18:05;;;;;;;92.87;43.53;;;-3.60;99.90;;;;;;5014605;28;20447;-74
2024/01/11 07:20:34;;;;;;;100.50;44.67;;;-3.60;99.90;;;;;;5015926;28;20454;-75
2024/01/11 07:23:02;;;;;;;97.47;43.80;;;-3.60;99.90;;;;;;5017807;28;20971;-75
2024/01/11 07:25:30;;;;;;;86.60;40.33;;;-3.60;99.90;;;;;;5016074;28;20447;-75
2024/01/11 07:27:59;;;;;;;96.37;41.93;;;-3.60;99.90;;;;;;5016083;28;20519;-74
2024/01/11 07:30:27;;;;;;;75.20;38.00;;;-3.60;99.90;;;;;;5015037;28;20477;-75
2024/01/11 07:32:55;;;;;;;95.87;40.93;;;-3.50;99.90;;;;;;5015890;28;20463;-75
2024/01/11 07:35:25;;;;;;;100.60;43.83;;;-3.50;99.90;;;;;;5016054;28;20440;-75
2024/01/11 07:37:54;;;;;;;91.50;41.80;;;-3.50;99.90;;;;;;5015699;28;20534;-75
2024/01/11 07:40:22;;;;;;;95.83;44.80;;;-3.50;99.90;;;;;;5015522;28;20798;-75
2024/01/11 07:42:50;;;;;;;89.63;40.67;;;-3.40;99.90;;;;;;5015329;28;20494;-75
2024/01/11 07:45:19;;;;;;;86.83;42.17;;;-3.40;99.90;;;;;;5015037;28;20442;-75
2024/01/11 07:47:47;;;;;;;90.37;41.20;;;-3.40;99.90;;;;;;5015157;28;20499;-75
2024/01/11 07:50:15;;;;;;;91.00;42.00;;;-3.40;99.90;;;;;;5014794;28;20474;-75
2024/01/11 07:52:45;;;;;;;94.13;40.97;;;-3.40;99.90;;;;;;5014763;28;20546;-75
2024/01/11 07:55:14;;;;;;;87.67;43.30;;;-3.30;99.90;;;;;;5013432;28;20444;-75
2024/01/11 07:57:42;;;;;;;91.93;43.60;;;-3.30;99.90;;;;;;5013507;28;20451;-74
2024/01/11 08:00:10;;;;;;;87.87;41.53;;;-3.30;99.90;;;;;;5014580;28;20563;-75
2024/01/11 08:02:41;;;;;;;76.73;40.13;;;-3.30;99.90;;;;;;5013343;28;20877;-75
2024/01/11 08:05:10;;;;;;;86.83;38.33;;;-3.20;99.90;;;;;;5013505;28;20518;-75
2024/01/11 08:07:39;;;;;;;87.17;41.70;;;-3.30;99.90;;;;;;5014580;28;21037;-75
2024/01/11 08:10:10;;;;;;;95.43;40.93;;;-3.20;99.90;;;;;;5013109;28;20472;-75
2024/01/11 08:12:38;;;;;;;92.10;41.87;;;-3.10;99.90;;;;;;5013143;28;20464;-75
2024/01/11 08:15:07;;;;;;;92.07;42.33;;;-3.10;99.90;;;;;;5014754;28;20835;-75
2024/01/11 08:17:35;;;;;;;105.67;47.67;;;-3.10;99.90;;;;;;5014534;28;20494;-75
2024/01/11 08:20:08;;;;;;;90.50;42.57;;;-3.10;99.90;;;;;;5014462;28;20452;-75
2024/01/11 08:22:37;;;;;;;95.17;42.50;;;-3.10;99.90;;;;;;5013063;28;20444;-75
2024/01/11 08:25:06;;;;;;;94.27;44.67;;;-3.00;99.90;;;;;;5013489;28;20972;-74
2024/01/11 08:27:36;;;;;;;92.10;42.93;;;-3.00;99.90;;;;;;5016168;28;20447;-75
2024/01/11 08:30:06;;;;;;;91.17;44.50;;;-3.00;99.90;;;;;;5015297;28;20470;-75
2024/01/11 08:32:38;;;;;;;86.97;40.20;;;-3.00;99.90;;;;;;5014235;28;20476;-75
2024/01/11 08:35:09;;;;;;;88.50;44.03;;;-2.90;99.90;;;;;;5015344;28;20515;-75
2024/01/11 08:37:38;;;;;;;87.63;43.67;;;-2.90;99.90;;;;;;5015598;28;20897;-75
2024/01/11 08:40:09;;;;;;;78.17;40.90;;;-2.90;99.90;;;;;;5014724;28;20459;-75
2024/01/11 08:42:39;;;;;;;90.77;43.03;;;-2.80;99.90;;;;;;5014135;28;20480;-75
2024/01/11 08:45:08;;;;;;;90.20;42.60;;;-2.80;99.90;;;;;;5015227;28;20472;-75
2024/01/11 08:47:38;;;;;;;86.40;42.53;;;-2.70;99.90;;;;;;5015227;28;20853;-74
2024/01/11 08:50:08;;;;;;;83.63;42.20;;;-2.70;99.90;;;;;;5015168;28;20521;-75
2024/01/11 08:52:36;;;;;;;89.80;42.93;;;-2.70;99.90;;;;;;5013889;28;20464;-75
2024/01/11 08:55:05;;;;;;;83.93;42.20;;;-2.70;99.90;;;;;;5013730;28;20460;-75
2024/01/11 08:57:35;;;;;;;83.87;40.00;;;-2.60;99.90;;;;;;5015223;28;20913;-75
2024/01/11 09:00:06;;;;;;;81.83;41.67;;;-2.60;99.90;;;;;;5015227;28;20554;-75
2024/01/11 09:02:35;;;;;;;77.37;41.30;;;-2.50;99.90;;;;;;5013992;28;20448;-75
2024/01/11 09:05:07;;;;;;;74.53;40.00;;;-2.50;99.90;;;;;;5015356;28;20518;-75
2024/01/11 09:07:37;;;;;;;80.63;41.77;;;-2.50;99.90;;;;;;5015505;28;20761;-75
2024/01/11 09:10:08;;;;;;;88.47;42.70;;;-2.40;99.90;;;;;;5014556;28;20503;-75
2024/01/11 09:12:36;;;;;;;83.90;42.30;;;-2.40;99.90;;;;;;5013862;28;20460;-74
2024/01/11 09:15:07;;;;;;;90.03;40.00;;;-2.40;99.90;;;;;;5013971;28;20534;-75
2024/01/11 09:17:36;;;;;;;79.50;40.60;;;-2.30;99.90;;;;;;5013505;28;20502;-75
2024/01/11 09:20:05;;;;;;;75.17;38.20;;;-2.30;99.90;;;;;;5013288;28;20552;-75
2024/01/11 09:22:33;;;;;;;87.97;41.13;;;-2.20;99.90;;;;;;5014918;28;20436;-75
2024/01/11 09:25:02;;;;;;;88.33;42.20;;;-2.20;99.90;;;;;;5013219;28;21015;-75
2024/01/11 09:27:30;;;;;;;80.57;38.83;;;-2.20;99.90;;;;;;5013038;28;20448;-75
2024/01/11 09:29:58;;;;;;;81.07;42.70;;;-2.20;99.90;;;;;;5014094;28;20887;-75
2024/01/11 09:32:28;;;;;;;79.70;42.10;;;-2.10;99.90;;;;;;5012927;28;20555;-75
2024/01/11 09:34:56;;;;;;;86.43;41.70;;;-2.00;99.90;;;;;;5014161;28;20498;-75
2024/01/11 09:37:25;;;;;;;79.33;40.53;;;-2.00;99.90;;;;;;5014220;28;20567;-75
2024/01/11 09:39:53;;;;;;;80.73;39.60;;;-2.00;99.90;;;;;;5014138;28;20463;-75
2024/01/11 09:42:21;;;;;;;75.23;41.30;;;-2.00;99.90;;;;;;5013046;28;20865;-75
2024/01/11 09:44:50;;;;;;;82.93;41.60;;;-1.90;99.90;;;;;;5013182;28;20475;-75
2024/01/11 09:47:19;;;;;;;74.80;42.10;;;-1.90;99.90;;;;;;5012852;28;20455;-75
2024/01/11 09:49:51;;;;;;;85.97;42.03;;;-1.90;99.90;;;;;;5014001;28;20455;-75
2024/01/11 09:52:22;;;;;;;78.53;38.30;;;-1.90;99.90;;;;;;5015870;28;20474;-75
2024/01/11 09:54:50;;;;;;;75.53;40.53;;;-1.80;99.90;;;;;;5017350;28;20507;-75
2024/01/11 09:57:25;;;;;;;81.40;39.27;;;-1.80;99.90;;;;;;5017205;28;20496;-75
2024/01/11 09:59:56;;;;;;;77.73;39.77;;;-1.80;99.90;;;;;;5016904;28;20458;-75
2024/01/11 10:02:26;;;;;;;75.57;38.40;;;-1.70;99.90;;;;;;5015555;28;20459;-75
2024/01/11 10:04:56;;;;;;;76.00;38.00;;;-1.70;99.90;;;;;;5016735;28;20436;-76
2024/01/11 10:07:25;;;;;;;75.40;41.23;;;-1.60;99.90;;;;;;5015492;28;20538;-75
2024/01/11 10:09:54;;;;;;;72.90;37.47;;;-1.60;99.90;;;;;;5015339;28;20503;-75
2024/01/11 10:12:24;;;;;;;73.33;37.80;;;-1.60;99.90;;;;;;5015413;28;20867;-75
2024/01/11 10:14:53;;;;;;;71.87;34.70;;;-1.50;99.90;;;;;;5016538;28;20795;-75
2024/01/11 10:17:22;;;;;;;74.93;38.03;;;-1.50;99.90;;;;;;5015304;28;20452;-75
2024/01/11 10:19:55;;;;;;;73.43;37.83;;;-1.50;99.90;;;;;;5016987;28;20456;-75
2024/01/11 10:22:24;;;;;;;77.83;38.07;;;-1.40;99.90;;;;;;5016804;28;20432;-76
2024/01/11 10:25:10;;;;;;;73.77;40.23;;;-1.30;99.90;;;;;;5016638;28;20424;-76
2024/01/11 10:27:41;;;;;;;88.40;40.43;;;-1.30;99.90;;;;;;5015760;28;20511;-77
2024/01/11 10:30:12;;;;;;;91.87;40.40;;;-1.20;99.90;;;;;;5017023;28;20464;-77
2024/01/11 10:32:41;;;;;;;79.70;40.03;;;-1.20;99.90;;;;;;5015870;28;20451;-76
2024/01/11 10:35:11;;;;;;;75.37;39.90;;;-1.20;99.90;;;;;;5015661;28;20471;-76
2024/01/11 10:37:40;;;;;;;77.47;42.40;;;-1.10;99.90;;;;;;5016094;28;20814;-77
2024/01/11 10:40:12;;;;;;;75.40;40.17;;;-1.10;99.90;;;;;;5017735;28;20455;-76
2024/01/11 10:42:43;;;;;;;84.10;43.80;;;-1.10;99.90;;;;;;5015077;28;20535;-76
2024/01/11 10:45:16;;;;;;;76.67;37.77;;;-1.00;99.90;;;;;;5016734;28;20440;-77
2024/01/11 10:47:52;;;;;;;82.27;40.30;;;-0.90;99.90;;;;;;5018347;28;20448;-77
2024/01/11 10:50:24;;;;;;;81.30;42.63;;;-0.90;99.90;;;;;;5018052;28;20467;-77
2024/01/11 10:53:03;;;;;;;84.50;44.40;;;-0.90;99.90;;;;;;5020336;28;20428;-77
2024/01/11 10:55:34;;;;;;;84.50;40.37;;;-0.90;99.90;;;;;;5017125;28;20432;-76
2024/01/11 10:58:03;;;;;;;86.07;41.03;;;-0.80;99.90;;;;;;5014740;28;20452;-77
2024/01/11 11:00:32;;;;;;;74.73;38.83;;;-0.80;99.90;;;;;;5014408;28;20467;-77
2024/01/11 11:03:01;;;;;;;84.50;39.43;;;-0.80;99.90;;;;;;5015396;28;20957;-76
2024/01/11 11:05:31;;;;;;;77.03;41.37;;;-0.70;99.90;;;;;;5014733;28;20467;-77
2024/01/11 11:08:02;;;;;;;83.80;39.43;;;-0.70;99.90;;;;;;5014434;28;20460;-76
2024/01/11 11:10:33;;;;;;;81.50;41.80;;;-0.60;99.90;;;;;;5014806;28;20914;-78
2024/01/11 11:13:01;;;;;;;78.77;38.40;;;-0.60;99.90;;;;;;5017472;28;20941;-77
2024/01/11 11:15:30;;;;;;;86.73;44.83;;;-0.60;99.90;;;;;;5018218;28;20432;-77
2024/01/11 11:17:58;;;;;;;75.57;40.87;;;-0.50;99.90;;;;;;5015746;28;20867;-77
2024/01/11 11:20:27;;;;;;;84.10;39.43;;;-0.50;99.90;;;;;;5016025;28;20479;-77
2024/01/11 11:23:18;;;;;;;75.40;37.60;;;-0.50;99.90;;;;;;5017957;28;21044;-76
2024/01/11 11:25:47;;;;;;;79.70;39.20;;;-0.40;99.90;;;;;;5020809;28;20421;-77
2024/01/11 11:28:17;;;;;;;83.57;42.57;;;-0.40;99.90;;;;;;5018002;28;20486;-78
2024/01/11 11:30:49;;;;;;;83.53;44.53;;;-0.30;99.90;;;;;;5020365;28;20568;-78
2024/01/11 11:33:19;;;;;;;74.93;40.40;;;-0.30;99.90;;;;;;5017906;28;20420;-77
2024/01/11 11:35:49;;;;;;;79.30;36.10;;;-0.30;99.90;;;;;;5016110;28;20830;-77
2024/01/11 11:38:25;;;;;;;77.83;38.43;;;-0.30;99.90;;;;;;5016426;28;20510;-77
2024/01/11 11:40:54;;;;;;;79.47;39.93;;;-0.20;99.90;;;;;;5018535;28;20459;-77
2024/01/11 11:43:23;;;;;;;75.67;39.80;;;-0.20;99.90;;;;;;5016207;28;20792;-77
2024/01/11 11:45:52;;;;;;;78.00;42.17;;;-0.20;99.90;;;;;;5017717;28;20459;-77
2024/01/11 11:48:50;;;;;;;74.17;36.57;;;-0.20;99.90;;;;;;5016361;28;20460;-77
2024/01/11 11:51:21;;;;;;;70.87;38.40;;;-0.10;99.90;;;;;;5018015;28;20514;-77
2024/01/11 11:53:54;;;;;;;75.43;41.47;;;-0.10;99.90;;;;;;5018751;28;20460;-78
2024/01/11 11:56:23;;;;;;;70.80;40.70;;;0.00;99.90;;;;;;5017368;28;20457;-78
2024/01/11 11:58:54;;;;;;;69.27;38.63;;;0.00;99.90;;;;;;5018072;28;20995;-78
2024/01/11 12:01:23;;;;;;;70.83;39.73;;;0.00;99.90;;;;;;5017982;28;20476;-77
2024/01/11 12:03:53;;;;;;;73.23;41.40;;;0.10;99.90;;;;;;5017315;28;20510;-78
2024/01/11 12:06:24;;;;;;;69.00;38.33;;;0.10;99.90;;;;;;5019932;28;20945;-78
2024/01/11 12:08:55;;;;;;;68.63;36.87;;;0.10;99.90;;;;;;5021338;28;20440;-78
2024/01/11 12:11:26;;;;;;;68.70;36.80;;;0.20;99.90;;;;;;5020530;28;20546;-78
2024/01/11 12:13:57;;;;;;;64.00;35.57;;;0.20;99.90;;;;;;5019475;28;20454;-78
2024/01/11 12:16:26;;;;;;;62.57;37.80;;;0.20;99.90;;;;;;5020667;28;20448;-78
2024/01/11 12:18:54;;;;;;;57.57;35.00;;;0.20;99.90;;;;;;5021290;28;20456;-78
2024/01/11 12:21:26;;;;;;;70.20;39.90;;;0.20;99.90;;;;;;5020750;28;20477;-78
2024/01/11 12:23:56;;;;;;;65.53;41.20;;;0.30;99.90;;;;;;5020737;28;20463;-78
2024/01/11 12:26:24;;;;;;;75.40;43.97;;;0.30;99.90;;;;;;5021123;28;20449;-78
2024/01/11 12:28:53;;;;;;;71.83;45.30;;;0.30;99.90;;;;;;5022611;28;20453;-78
2024/01/11 12:31:22;;;;;;;68.00;45.00;;;0.40;99.90;;;;;;5021440;28;21016;-78
2024/01/11 12:33:53;;;;;;;62.07;42.07;;;0.40;99.90;;;;;;5021747;28;20459;-78
2024/01/11 12:36:22;;;;;;;59.73;37.53;;;0.40;99.90;;;;;;5022376;28;20451;-78
2024/01/11 12:38:50;;;;;;;62.63;37.40;;;0.50;99.90;;;;;;5021758;28;20455;-78